Temp: 13.9°C   Baro: 1018.4mb
  Wind: 2.9mph   Dir: ENE (76°)
  Rain: 0.0mm (0.0mm/hr)
  Solar: 0W/m2  Hum: 85%
 
Bath Spa Weather Station Historical Data
Daily Summary for February 14, 2020 Units:  English    Metric   Both
Daily Weekly Monthly Yearly Custom
  High: Low: Average:
Temperature: 52.7 °F 37 °F 47 °F
Dew Point: 50.4 °F 34.9 °F 43.8 °F
Humidity: 93.4% 78% 89%
Wind Speed: 15mph 0mph 4.7mph
Wind Gust: 27mph - -
Wind- - SW
Pressure: 30.03 in 29.91 in -
Precipitation: 0.16 in    
Historical Graphs
 
 
Tabular Data for February 14, 2020
Time Temperature Dew Point Pressure Wind Wind Speed Wind Gust Humidity Rainfall Rate (Hourly) solar
00:04 44.4 °F 38.3 °F 29.92 in WNW 0.5 mph 3 mph 79% 0.00 in 0 W/m2
00:09 44.4 °F 38.3 °F 29.93 in West 2.2 mph 4 mph 79% 0.00 in 0 W/m2
00:14 44.3 °F 38.6 °F 29.92 in West 0.4 mph 3 mph 80% 0.00 in 0 W/m2
00:19 44.2 °F 38.5 °F 29.92 in West 0.4 mph 2 mph 80% 0.00 in 0 W/m2
00:24 44.1 °F 38.3 °F 29.92 in Calm   1 mph 80% 0.00 in 0 W/m2
00:29 44 °F 38.2 °F 29.92 in Calm     80% 0.00 in 0 W/m2
00:34 43.7 °F 38.2 °F 29.93 in Calm     80.8% 0.00 in 0 W/m2
00:39 43.3 °F 37.9 °F 29.93 in Calm     81% 0.00 in 0 W/m2
00:44 43 °F 37.9 °F 29.93 in West 1.6 mph 3 mph 81.8% 0.00 in 0 W/m2
00:49 42.5 °F 37.5 °F 29.93 in West 0.4 mph 2 mph 82.2% 0.00 in 0 W/m2
00:54 42.2 °F 37.3 °F 29.94 in West 1.6 mph 3 mph 83% 0.00 in 0 W/m2
00:59 41.7 °F 37.1 °F 29.94 in West 0.4 mph 2 mph 83.6% 0.00 in 0 W/m2
01:04 41.4 °F 36.9 °F 29.95 in West 0.7 mph 2 mph 84% 0.00 in 0 W/m2
01:09 41.2 °F 36.9 °F 29.96 in West 1.3 mph 3 mph 84.6% 0.00 in 0 W/m2
01:14 40.8 °F 36.7 °F 29.95 in NW 2.7 mph 4 mph 85% 0.00 in 0 W/m2
01:19 40.8 °F 36.9 °F 29.96 in NNW 1.3 mph 3 mph 85.8% 0.00 in 0 W/m2
01:24 40.8 °F 37 °F 29.96 in NNW 2.1 mph 3 mph 86% 0.00 in 0 W/m2
01:29 40.9 °F 37.1 °F 29.96 in NNW 0.4 mph 2 mph 86% 0.00 in 0 W/m2
01:34 40.8 °F 37 °F 29.96 in NNW 0.2 mph 2 mph 86% 0.00 in 0 W/m2
01:39 40.8 °F 37 °F 29.96 in NNW 0.6 mph 2 mph 86% 0.00 in 0 W/m2
01:44 40.8 °F 37.1 °F 29.96 in NNW 0.4 mph 2 mph 86.4% 0.00 in 0 W/m2
01:49 40.8 °F 37.2 °F 29.97 in Calm     87% 0.00 in 0 W/m2
01:54 40.8 °F 37.2 °F 29.97 in Calm     87% 0.00 in 0 W/m2
01:59 40.8 °F 37.2 °F 29.97 in NNW 0.4 mph 2 mph 87% 0.00 in 0 W/m2
02:04 40.8 °F 37.2 °F 29.97 in North 1.6 mph 3 mph 87% 0.00 in 0 W/m2
02:09 40.8 °F 37.2 °F 29.96 in North 0.9 mph 3 mph 87% 0.00 in 0 W/m2
02:14 40.8 °F 37.2 °F 29.96 in North 1.3 mph 3 mph 87% 0.00 in 0 W/m2
02:19 40.6 °F 37 °F 29.96 in North 0.9 mph 2 mph 87% 0.00 in 0 W/m2
02:24 40.6 °F 37 °F 29.97 in North 0.5 mph 2 mph 87% 0.00 in 0 W/m2
02:29 40.5 °F 36.9 °F 29.97 in North 0.2 mph 2 mph 87% 0.00 in 0 W/m2
02:34 40.1 °F 36.5 °F 29.97 in North 0.5 mph 2 mph 87% 0.00 in 0 W/m2
02:39 39.9 °F 36.6 °F 29.97 in North 0.7 mph 3 mph 87.8% 0.00 in 0 W/m2
02:44 39.8 °F 36.6 °F 29.97 in North 1.2 mph 3 mph 88% 0.00 in 0 W/m2
02:49 39.7 °F 36.4 °F 29.97 in North 0.2 mph 3 mph 88% 0.00 in 0 W/m2
02:54 39.5 °F 36.2 °F 29.98 in North 0.9 mph 2 mph 88% 0.00 in 0 W/m2
02:59 39.2 °F 36 °F 29.98 in North 0.8 mph 2 mph 88% 0.00 in 0 W/m2
03:04 39 °F 35.9 °F 29.98 in North 1.2 mph 2 mph 88.2% 0.00 in 0 W/m2
03:09 38.8 °F 36 °F 29.98 in North 0.6 mph 2 mph 89% 0.00 in 0 W/m2
03:14 38.7 °F 35.8 °F 29.98 in North 1.1 mph 2 mph 89% 0.00 in 0 W/m2
03:19 38.7 °F 35.8 °F 29.98 in North 0.5 mph 2 mph 89% 0.00 in 0 W/m2
03:24 38.4 °F 35.5 °F 29.98 in North 1.2 mph 3 mph 89% 0.00 in 0 W/m2
03:29 38.1 °F 35.2 °F 29.98 in North 1.2 mph 4 mph 89% 0.00 in 0 W/m2
03:34 38.1 °F 35.2 °F 29.98 in NNW 0.8 mph 4 mph 89% 0.00 in 0 W/m2
03:39 38.3 °F 35.5 °F 29.98 in NNW 0.8 mph 2 mph 89.6% 0.00 in 0 W/m2
03:44 38.5 °F 35.8 °F 29.98 in NNW 0.2 mph 2 mph 90% 0.00 in 0 W/m2
03:49 38.5 °F 35.8 °F 29.98 in Calm   1 mph 90% 0.00 in 0 W/m2
03:54 38 °F 35.3 °F 29.99 in NNW 1.2 mph 2 mph 90% 0.00 in 0 W/m2
03:59 37.8 °F 35.1 °F 29.99 in NNW 1.1 mph 2 mph 90% 0.00 in 0 W/m2
04:04 37.9 °F 35.2 °F 29.99 in NNW 2 mph 3 mph 90% 0.00 in 0 W/m2
04:09 37.9 °F 35.2 °F 29.99 in NNW 1.2 mph 3 mph 90% 0.00 in 0 W/m2
04:14 37.9 °F 35.2 °F 29.99 in NNW 0.9 mph 2 mph 90% 0.00 in 0 W/m2
04:19 38 °F 35.3 °F 30.00 in NNW 1.8 mph 3 mph 90% 0.00 in 0 W/m2
04:24 38 °F 35.3 °F 30.00 in NNW 1 mph 2 mph 90% 0.00 in 0 W/m2
04:29 37.9 °F 35.2 °F 30.00 in NNW 1.8 mph 3 mph 90% 0.00 in 0 W/m2
04:34 38.1 °F 35.6 °F 30.00 in NNW 1.1 mph 2 mph 90.6% 0.00 in 0 W/m2
04:39 38.2 °F 35.9 °F 30.00 in NNW 0.5 mph 2 mph 91% 0.00 in 0 W/m2
04:44 38.3 °F 36 °F 30.00 in North 1.7 mph 3 mph 91% 0.00 in 0 W/m2
04:49 38.6 °F 36.2 °F 30.00 in North 1.4 mph 3 mph 91% 0.00 in 0 W/m2
04:54 38.8 °F 36.4 °F 30.00 in North 1.3 mph 4 mph 91% 0.00 in 0 W/m2
04:59 38.7 °F 36.3 °F 30.00 in North 2.5 mph 4 mph 91% 0.00 in 0 W/m2
05:04 38.8 °F 36.5 °F 30.01 in North 0.8 mph 4 mph 91% 0.00 in 0 W/m2
05:09 38.8 °F 36.5 °F 30.01 in North 0.2 mph 2 mph 91% 0.00 in 0 W/m2
05:14 38.8 °F 36.5 °F 30.00 in North 0.9 mph 2 mph 91% 0.00 in 0 W/m2
05:19 38.8 °F 36.5 °F 30.00 in North 1.8 mph 3 mph 91% 0.00 in 0 W/m2
05:24 38.8 °F 36.5 °F 30.00 in North 0.2 mph 2 mph 91% 0.00 in 0 W/m2
05:29 38.8 °F 36.5 °F 30.00 in North 1.3 mph 2 mph 91% 0.00 in 0 W/m2
05:34 38.7 °F 36.3 °F 30.01 in North 0.9 mph 2 mph 91% 0.00 in 0 W/m2
05:39 38.5 °F 36.1 °F 30.01 in North 0.4 mph 2 mph 91% 0.00 in 0 W/m2
05:44 38.1 °F 35.8 °F 30.00 in North 1.3 mph 2 mph 91% 0.00 in 0 W/m2
05:49 37.9 °F 35.6 °F 30.00 in North 0.2 mph 2 mph 91% 0.00 in 0 W/m2
05:54 37.5 °F 35.2 °F 30.01 in North 1.8 mph 3 mph 91% 0.00 in 0 W/m2
05:59 37.2 °F 34.9 °F 30.01 in North 2.5 mph 4 mph 91% 0.00 in 0 W/m2
06:04 37.5 °F 35.1 °F 30.01 in North 2.5 mph 4 mph 91% 0.00 in 0 W/m2
06:09 37.4 °F 35.1 °F 30.01 in North 2.4 mph 3 mph 91.4% 0.00 in 0 W/m2
06:14 37.4 °F 35.2 °F 30.00 in North 1.4 mph 3 mph 92% 0.00 in 0 W/m2
06:19 37.4 °F 35.2 °F 30.00 in North 0.7 mph 3 mph 92% 0.00 in 0 W/m2
06:24 37.3 °F 35.2 °F 30.00 in North 0.2 mph 2 mph 92% 0.00 in 0 W/m2
06:29 37.2 °F 35.1 °F 30.00 in Calm     92% 0.00 in 0 W/m2
06:34 37 °F 34.9 °F 30.01 in North 0.6 mph 3 mph 92% 0.00 in 0 W/m2
06:39 37 °F 34.9 °F 30.01 in North 1.7 mph 3 mph 92% 0.00 in 0 W/m2
06:43 37.6 °F 35.4 °F 30.01 in North 2.2 mph 5 mph 92% 0.00 in 0 W/m2
06:49 37.7 °F 35.5 °F 30.01 in North 0.5 mph 3 mph 92% 0.00 in 0 W/m2
06:54 37.6 °F 35.4 °F 30.01 in North 2 mph 3 mph 92% 0.00 in 0 W/m2
06:59 37.9 °F 35.7 °F 30.01 in North 0.8 mph 3 mph 92% 0.00 in 0 W/m2
07:04 37.8 °F 35.6 °F 30.01 in Calm   1 mph 92% 0.00 in 0 W/m2
07:09 37.7 °F 35.5 °F 30.01 in North 1.2 mph 3 mph 92% 0.00 in 0 W/m2
07:14 37.8 °F 35.6 °F 30.01 in North 1 mph 3 mph 92% 0.00 in 0 W/m2
07:19 38.2 °F 36 °F 30.01 in NW 0.9 mph 3 mph 92% 0.00 in 0 W/m2
07:24 37.5 °F 35.3 °F 30.01 in West 0.7 mph 3 mph 92% 0.00 in 0 W/m2
07:29 37 °F 34.9 °F 30.01 in NW 1.2 mph 3 mph 92% 0.00 in 0 W/m2
07:34 37 °F 34.9 °F 30.01 in NNE 2.4 mph 5 mph 92% 0.00 in 5 W/m2
07:39 37.2 °F 35.1 °F 30.01 in NE 1.4 mph 3 mph 92% 0.00 in 11 W/m2
07:44 38 °F 36.2 °F 30.01 in ENE 1.5 mph 5 mph 93% 0.00 in 14 W/m2
07:49 38.2 °F 36.4 °F 30.01 in NNE 2.1 mph 4 mph 93% 0.00 in 19 W/m2
07:54 38.5 °F 36.7 °F 30.01 in NNW 1.2 mph 4 mph 93% 0.00 in 26 W/m2
07:59 38.9 °F 37.1 °F 30.02 in NNW 2.4 mph 4 mph 93% 0.00 in 28 W/m2
08:04 39.2 °F 37.4 °F 30.02 in NNW 2.1 mph 4 mph 93% 0.00 in 28 W/m2
08:09 39.6 °F 37.8 °F 30.02 in SW 0.7 mph 3 mph 93% 0.00 in 30 W/m2
08:14 39.5 °F 37.7 °F 30.02 in SSW 0.6 mph 3 mph 93% 0.00 in 33 W/m2
08:19 39.4 °F 37.6 °F 30.03 in SSW 0.8 mph 3 mph 93% 0.00 in 46 W/m2
08:24 39.5 °F 37.7 °F 30.03 in WSW 0.6 mph 2 mph 93% 0.00 in 54 W/m2
08:29 40.4 °F 38.6 °F 30.02 in SW 0.8 mph 4 mph 93% 0.00 in 62 W/m2
08:34 41.3 °F 39.5 °F 30.02 in SW 0.2 mph 1 mph 93% 0.00 in 79 W/m2
08:39 42.2 °F 40.4 °F 30.02 in SSW 1.6 mph 3 mph 93% 0.00 in 90 W/m2
08:44 43.3 °F 41.5 °F 30.02 in SE 0.4 mph 4 mph 93% 0.00 in 118 W/m2
08:49 44 °F 42 °F 30.02 in SSW 1.2 mph 4 mph 93% 0.00 in 123 W/m2
08:54 44.1 °F 42.1 °F 30.03 in WSW 0.9 mph 5 mph 92.8% 0.00 in 120 W/m2
08:59 44.6 °F 42.4 °F 30.03 in SSW 2.1 mph 8 mph 92% 0.00 in 65 W/m2
09:04 45 °F 42.8 °F 30.03 in SSW 3 mph 8 mph 92% 0.00 in 49 W/m2
09:09 45.2 °F 42.8 °F 30.03 in SSW 4 mph 8 mph 91.2% 0.00 in 49 W/m2
09:14 45.3 °F 42.8 °F 30.02 in SSW 3.7 mph 9 mph 91% 0.00 in 58 W/m2
09:19 45.8 °F 43.2 °F 30.02 in SW 7.2 mph 14 mph 90.6% 0.00 in 107 W/m2
09:24 46.5 °F 43.8 °F 30.02 in South 7.4 mph 16 mph 90% 0.00 in 118 W/m2
09:29 46.8 °F 43.7 °F 30.01 in SSW 6.6 mph 14 mph 89% 0.00 in 125 W/m2
09:34 47.2 °F 43.9 °F 30.01 in SW 8.2 mph 17 mph 88.2% 0.00 in 153 W/m2
09:39 47.6 °F 44 °F 30.01 in SW 7.1 mph 13 mph 87.2% 0.00 in 158 W/m2
09:44 47.7 °F 44.1 °F 30.01 in SSW 3.2 mph 10 mph 87% 0.00 in 134 W/m2
09:49 47.8 °F 44.2 °F 30.01 in SW 3.7 mph 7 mph 87% 0.00 in 169 W/m2
09:54 47.9 °F 44.3 °F 30.01 in SSW 4.5 mph 10 mph 87% 0.00 in 179 W/m2
09:59 48.4 °F 44.5 °F 30.01 in SW 5 mph 12 mph 86.2% 0.00 in 183 W/m2
10:04 48.7 °F 44.7 °F 30.01 in SSW 2.8 mph 8 mph 86% 0.00 in 98 W/m2
10:09 48.7 °F 44.8 °F 30.01 in SSW 3.7 mph 9 mph 86% 0.00 in 90 W/m2
10:13 48.9 °F 44.9 °F 30.01 in SW 5.8 mph 12 mph 85.8% 0.00 in 107 W/m2
10:19 49 °F 44.7 °F 30.01 in WSW 2.5 mph 6 mph 85% 0.00 in 172 W/m2
10:24 49.4 °F 45.2 °F 30.01 in South 3.2 mph 9 mph 85.4% 0.00 in 236 W/m2
10:29 49.8 °F 45.4 °F 30.01 in SSW 4.6 mph 14 mph 84.8% 0.00 in 276 W/m2
10:34 50.5 °F 45.8 °F 30.00 in SSW 3.9 mph 14 mph 83.8% 0.00 in 311 W/m2
10:39 51 °F 45.9 °F 30.00 in SSW 6 mph 17 mph 82.4% 0.00 in 378 W/m2
10:44 51.3 °F 45.9 °F 29.99 in South 6.1 mph 15 mph 81.4% 0.00 in 322 W/m2
10:49 51.5 °F 45.9 °F 29.99 in SW 5.5 mph 18 mph 81% 0.00 in 329 W/m2
10:54 51.6 °F 45.7 °F 29.98 in SSW 9.2 mph 20 mph 80% 0.00 in 345 W/m2
10:59 51.5 °F 45.6 °F 29.98 in SW 10 mph 21 mph 80% 0.00 in 322 W/m2
11:04 51.6 °F 45.7 °F 29.99 in SW 10.6 mph 21 mph 80% 0.00 in 369 W/m2
11:09 51.8 °F 45.5 °F 30.00 in SSW 11.1 mph 23 mph 79.2% 0.00 in 378 W/m2
11:14 52.2 °F 45.9 °F 30.00 in SSW 13.8 mph 21 mph 79.2% 0.00 in 396 W/m2
11:19 52.2 °F 45.9 °F 30.01 in SW 11 mph 22 mph 79% 0.00 in 420 W/m2
11:24 52.5 °F 46.2 °F 30.01 in WSW 9 mph 22 mph 78.8% 0.00 in 420 W/m2
11:29 52.7 °F 46.1 °F 30.01 in SW 10.2 mph 18 mph 78% 0.00 in 367 W/m2
11:34 52.5 °F 45.8 °F 30.01 in WSW 10.8 mph 24 mph 78% 0.00 in 281 W/m2
11:39 52.3 °F 45.7 °F 30.01 in WSW 8.6 mph 24 mph 78% 0.00 in 234 W/m2
11:44 52.2 °F 45.5 °F 30.01 in SSW 9.6 mph 21 mph 78% 0.00 in 155 W/m2
11:49 52 °F 45.3 °F 30.01 in SW 12.2 mph 27 mph 78% 0.00 in 56 W/m2
11:54 51.8 °F 45.1 °F 30.01 in WSW 9.2 mph 20 mph 78% 0.00 in 49 W/m2
11:59 51.6 °F 45.1 °F 30.01 in SW 9 mph 25 mph 78.2% 0.00 in 51 W/m2
12:04 51.6 °F 45.2 °F 30.01 in SW 13.6 mph 22 mph 78.6% 0.00 in 58 W/m2
12:09 51.6 °F 45.3 °F 30.01 in SW 10.8 mph 21 mph 79% 0.00 in 144 W/m2
12:14 51.6 °F 45.3 °F 30.00 in SW 6.6 mph 22 mph 79% 0.00 in 165 W/m2
12:19 51.6 °F 45.3 °F 29.99 in SW 7.4 mph 19 mph 79% 0.00 in 171 W/m2
12:24 51.6 °F 45.3 °F 29.98 in SSW 9.2 mph 18 mph 79% 0.00 in 178 W/m2
12:29 51.6 °F 45.7 °F 29.98 in SW 10.6 mph 19 mph 80% 0.00 in 185 W/m2
12:34 51.8 °F 45.9 °F 29.97 in SW 9.2 mph 22 mph 80% 0.00 in 190 W/m2
12:39 52 °F 46 °F 29.97 in SW 9.4 mph 17 mph 80% 0.00 in 214 W/m2
12:44 52.1 °F 46.1 °F 29.97 in SW 13 mph 23 mph 80% 0.00 in 292 W/m2
12:49 52.2 °F 46.2 °F 29.97 in SW 15 mph 21 mph 80% 0.00 in 246 W/m2
12:54 52.2 °F 46.2 °F 29.97 in SSW 10.5 mph 23 mph 80% 0.00 in 260 W/m2
12:59 52.2 °F 46.4 °F 29.97 in SSW 12 mph 21 mph 80.4% 0.00 in 267 W/m2
13:04 52.2 °F 46.6 °F 29.97 in SSW 10.2 mph 22 mph 81% 0.00 in 220 W/m2
13:09 52.2 °F 46.6 °F 29.97 in SW 8.6 mph 18 mph 81% 0.00 in 220 W/m2
13:14 52.2 °F 46.7 °F 29.97 in SSW 7.5 mph 18 mph 81.6% 0.00 in 207 W/m2
13:19 52.3 °F 46.9 °F 29.97 in SW 10.1 mph 18 mph 82% 0.00 in 176 W/m2
13:24 52.2 °F 46.8 °F 29.98 in SSW 9 mph 16 mph 82% 0.00 in 125 W/m2
13:28 52.2 °F 47 °F 29.98 in SSW 6.3 mph 17 mph 82.8% 0.00 in 70 W/m2
13:34 52.1 °F 47 °F 29.97 in SSW 7.2 mph 13 mph 83% 0.00 in 54 W/m2
13:39 52 °F 47.2 °F 29.97 in SSW 6.6 mph 13 mph 83.8% 0.00 in 53 W/m2
13:44 51.9 °F 47.3 °F 29.97 in SSW 7.8 mph 17 mph 84.2% 0.00 in 49 W/m2
13:49 51.8 °F 47.5 °F 29.97 in SW 7.6 mph 19 mph 85% 0.00 in 47 W/m2
13:54 51.7 °F 47.4 °F 29.97 in SSW 4.5 mph 14 mph 85% 0.00 in 51 W/m2
13:59 51.7 °F 47.6 °F 29.97 in SW 6.7 mph 11 mph 86% 0.00 in 49 W/m2
14:04 51.8 °F 47.7 °F 29.97 in SW 7.2 mph 13 mph 86% 0.00 in 47 W/m2
14:09 52 °F 47.8 °F 29.97 in WSW 11.4 mph 15 mph 86% 0.00 in 49 W/m2
14:14 52 °F 47.8 °F 29.97 in South 5.5 mph 15 mph 86% 0.00 in 91 W/m2
14:19 52.1 °F 48.2 °F 29.96 in SSW 8.2 mph 12 mph 86.8% 0.00 in 114 W/m2
14:24 52.2 °F 48.4 °F 29.96 in SW 8.8 mph 18 mph 87% 0.00 in 130 W/m2
14:29 52.2 °F 48.4 °F 29.96 in SSW 10.4 mph 20 mph 87% 0.00 in 144 W/m2
14:34 52.2 °F 48.4 °F 29.96 in SSW 8.4 mph 22 mph 87% 0.00 in 162 W/m2
14:39 52.3 °F 48.6 °F 29.96 in SSW 9.8 mph 23 mph 87% 0.00 in 153 W/m2
14:44 52.3 °F 48.6 °F 29.96 in SW 13.6 mph 23 mph 87% 0.00 in 135 W/m2
14:49 52.3 °F 48.6 °F 29.96 in SW 9.5 mph 19 mph 87% 0.00 in 84 W/m2
14:54 52.2 °F 48.4 °F 29.96 in SSW 9.6 mph 18 mph 87% 0.00 in 69 W/m2
14:59 52.2 °F 48.4 °F 29.96 in SSW 8.6 mph 18 mph 87% 0.00 in 56 W/m2
15:04 52.2 °F 48.4 °F 29.96 in SSW 11.2 mph 20 mph 87% 0.00 in 53 W/m2
15:09 52.2 °F 48.4 °F 29.96 in SW 9.4 mph 17 mph 87% 0.00 in 40 W/m2
15:14 52.1 °F 48.5 °F 29.96 in SW 5.2 mph 18 mph 87.4% 0.00 in 40 W/m2
15:19 52 °F 48.6 °F 29.96 in South 8.8 mph 20 mph 88% 0.00 in 40 W/m2
15:24 51.9 °F 48.6 °F 29.96 in SW 8.8 mph 14 mph 88.2% 0.00 in 49 W/m2
15:29 51.6 °F 48.6 °F 29.96 in SSW 8.7 mph 17 mph 89% 0.00 in 53 W/m2
15:34 51.6 °F 48.6 °F 29.96 in SW 6.8 mph 15 mph 89% 0.00 in 54 W/m2
15:39 51.4 °F 48.6 °F 29.96 in SW 7.4 mph 13 mph 90% 0.00 in 49 W/m2
15:44 51.4 °F 48.6 °F 29.96 in SSW 6.2 mph 14 mph 90% 0.00 in 40 W/m2
15:49 51.4 °F 48.6 °F 29.96 in South 6.6 mph 17 mph 90% 0.00 in 44 W/m2
15:54 51.4 °F 48.6 °F 29.96 in SSW 9.4 mph 17 mph 90% 0.00 in 44 W/m2
15:59 51.4 °F 48.6 °F 29.96 in SSW 6.4 mph 12 mph 90% 0.00 in 40 W/m2
16:04 51.4 °F 48.6 °F 29.96 in SW 5.2 mph 10 mph 90% 0.00 in 32 W/m2
16:09 51.4 °F 48.7 °F 29.96 in SW 6.9 mph 12 mph 90.6% 0.00 in 19 W/m2
16:14 51.3 °F 48.7 °F 29.96 in SSW 6.6 mph 16 mph 91% 0.00 in 19 W/m2
16:19 51.3 °F 48.7 °F 29.96 in SW 8.6 mph 16 mph 91% 0.00 in 21 W/m2
16:24 51.3 °F 48.7 °F 29.96 in SW 7 mph 16 mph 91% 0.00 in 19 W/m2
16:29 51.3 °F 48.7 °F 29.96 in SSW 5.3 mph 13 mph 91% 0.00 in 19 W/m2
16:34 51.1 °F 48.6 °F 29.96 in SSW 5.4 mph 15 mph 91% 0.00 in 19 W/m2
16:39 51.1 °F 48.8 °F 29.96 in SSW 7.6 mph 13 mph 91.6% 0.00 in 16 W/m2
16:44 51.1 °F 48.9 °F 29.96 in SW 7 mph 15 mph 92% 0.00 in 14 W/m2
16:49 51.1 °F 48.9 °F 29.96 in SSW 6.8 mph 16 mph 92% 0.00 in 18 W/m2
16:54 51.2 °F 49 °F 29.95 in SW 9.8 mph 15 mph 92% 0.00 in 11 W/m2
16:59 51.3 °F 49.1 °F 29.96 in SSW 6.2 mph 12 mph 92% 0.00 in 9 W/m2
17:04 51.3 °F 49.1 °F 29.96 in SSW 7.2 mph 17 mph 92% 0.00 in 7 W/m2
17:09 51.3 °F 49.1 °F 29.96 in SSW 7.2 mph 17 mph 92% 0.00 in 5 W/m2
17:14 51.3 °F 49.1 °F 29.96 in SSW 7.6 mph 14 mph 92% 0.00 in 0 W/m2
17:19 51.3 °F 49.1 °F 29.96 in SSW 5.2 mph 11 mph 92% 0.00 in 0 W/m2
17:24 51.3 °F 49.1 °F 29.96 in SSW 5 mph 10 mph 92% 0.00 in 0 W/m2
17:29 51.3 °F 49.1 °F 29.96 in SSW 6.1 mph 14 mph 92% 0.01 in 0 W/m2
17:34 51.3 °F 49.1 °F 29.96 in SSW 5.2 mph 13 mph 92% 0.01 in 0 W/m2
17:39 51.3 °F 49.1 °F 29.96 in SSW 7.1 mph 13 mph 92% 0.01 in 0 W/m2
17:44 51.4 °F 49.3 °F 29.96 in SSW 8.6 mph 17 mph 92% 0.01 in 0 W/m2
17:49 51.4 °F 49.3 °F 29.96 in SSW 8 mph 17 mph 92% 0.01 in 0 W/m2
17:54 51.4 °F 49.3 °F 29.96 in SSW 6.8 mph 22 mph 92% 0.01 in 0 W/m2
17:59 51.4 °F 49.3 °F 29.96 in SSW 5.3 mph 11 mph 92% 0.01 in 0 W/m2
18:04 51.4 °F 49.3 °F 29.96 in SSW 7.1 mph 12 mph 92% 0.01 in 0 W/m2
18:09 51.4 °F 49.3 °F 29.96 in SSW 7.8 mph 15 mph 92% 0.02 in 0 W/m2
18:14 51.4 °F 49.3 °F 29.96 in SSW 5.8 mph 13 mph 92% 0.02 in 0 W/m2
18:19 51.4 °F 49.3 °F 29.96 in SSW 4.8 mph 11 mph 92% 0.02 in 0 W/m2
18:24 51.4 °F 49.3 °F 29.96 in SW 4.5 mph 10 mph 92% 0.02 in 0 W/m2
18:29 51.4 °F 49.3 °F 29.96 in SW 4.1 mph 9 mph 92% 0.03 in 0 W/m2
18:34 51.4 °F 49.3 °F 29.96 in SSW 6 mph 14 mph 92% 0.02 in 0 W/m2
18:39 51.5 °F 49.4 °F 29.96 in SW 6.4 mph 13 mph 92% 0.02 in 0 W/m2
18:44 51.6 °F 49.5 °F 29.95 in SW 7 mph 14 mph 92% 0.02 in 0 W/m2
18:49 51.6 °F 49.5 °F 29.95 in SSW 6.3 mph 14 mph 92% 0.02 in 0 W/m2
18:54 51.6 °F 49.6 °F 29.95 in SW 5.1 mph 15 mph 92.4% 0.02 in 0 W/m2
18:59 51.8 °F 49.8 °F 29.95 in SW 8.8 mph 15 mph 93% 0.02 in 0 W/m2
19:04 51.8 °F 49.8 °F 29.95 in SSW 5.3 mph 11 mph 93% 0.02 in 0 W/m2
19:09 51.9 °F 49.6 °F 29.95 in SW 6.6 mph 15 mph 92% 0.02 in 0 W/m2
19:14 52 °F 49.6 °F 29.95 in SW 5.8 mph 11 mph 92% 0.02 in 0 W/m2
19:19 52 °F 49.6 °F 29.95 in SW 7.4 mph 15 mph 92% 0.02 in 0 W/m2
19:24 52 °F 49.6 °F 29.95 in SSW 5.8 mph 12 mph 92% 0.01 in 0 W/m2
19:29 52 °F 49.6 °F 29.95 in SW 5.6 mph 12 mph 92% 0.00 in 0 W/m2
19:34 52 °F 49.6 °F 29.95 in SW 3.7 mph 9 mph 92% 0.00 in 0 W/m2
19:39 52 °F 49.6 °F 29.95 in SW 5.6 mph 9 mph 92% 0.00 in 0 W/m2
19:44 52 °F 49.6 °F 29.95 in SW 4.3 mph 9 mph 92% 0.00 in 0 W/m2
19:49 52.1 °F 49.7 °F 29.95 in SW 6.2 mph 11 mph 92% 0.00 in 0 W/m2
19:54 52.2 °F 49.8 °F 29.95 in SSW 4.8 mph 11 mph 92% 0.00 in 0 W/m2
19:59 52.2 °F 49.8 °F 29.95 in SW 7 mph 13 mph 92% 0.00 in 0 W/m2
20:04 52.2 °F 49.8 °F 29.94 in WSW 8.4 mph 13 mph 92% 0.01 in 0 W/m2
20:09 52.2 °F 49.8 °F 29.94 in SW 4.6 mph 10 mph 92% 0.01 in 0 W/m2
20:14 52.2 °F 49.8 °F 29.94 in SSW 6.1 mph 12 mph 92% 0.01 in 0 W/m2
20:19 52.2 °F 49.8 °F 29.94 in SW 3.7 mph 9 mph 92% 0.01 in 0 W/m2
20:24 52.2 °F 49.8 °F 29.93 in SW 4.4 mph 11 mph 92% 0.02 in 0 W/m2
20:29 52 °F 49.6 °F 29.93 in WSW 5.7 mph 13 mph 92% 0.02 in 0 W/m2
20:34 52 °F 49.9 °F 29.93 in SW 8 mph 13 mph 92.6% 0.02 in 0 W/m2
20:39 52.2 °F 50.2 °F 29.93 in WSW 6.4 mph 16 mph 93% 0.02 in 0 W/m2
20:44 52.1 °F 50.1 °F 29.93 in WSW 4.4 mph 12 mph 93% 0.02 in 0 W/m2
20:49 52.2 °F 50.2 °F 29.93 in WSW 4.7 mph 10 mph 93% 0.02 in 0 W/m2
20:54 52.2 °F 50.2 °F 29.93 in SW 4.6 mph 8 mph 93% 0.02 in 0 W/m2
20:59 52.2 °F 50.2 °F 29.93 in SW 5.3 mph 9 mph 93% 0.03 in 0 W/m2
21:04 52.2 °F 50.2 °F 29.93 in SW 6 mph 11 mph 93% 0.03 in 0 W/m2
21:09 52.2 °F 50.2 °F 29.93 in SW 7.4 mph 12 mph 93% 0.02 in 0 W/m2
21:14 52.2 °F 50.2 °F 29.93 in WSW 6.8 mph 11 mph 93% 0.03 in 0 W/m2
21:19 52.2 °F 50.2 °F 29.93 in SW 5.7 mph 13 mph 93% 0.03 in 0 W/m2
21:24 52.2 °F 50.2 °F 29.93 in SW 6.9 mph 11 mph 93% 0.03 in 0 W/m2
21:29 52.2 °F 50.2 °F 29.93 in SW 5.2 mph 15 mph 93% 0.02 in 0 W/m2
21:34 52.2 °F 50.2 °F 29.93 in SW 6.4 mph 11 mph 93% 0.02 in 0 W/m2
21:39 52.2 °F 50.2 °F 29.93 in SW 6 mph 11 mph 93% 0.02 in 0 W/m2
21:44 52.3 °F 50.4 °F 29.93 in SW 7.4 mph 14 mph 93% 0.02 in 0 W/m2
21:49 52.3 °F 50.4 °F 29.93 in SW 6.2 mph 11 mph 93% 0.02 in 0 W/m2
21:54 52.3 °F 50.4 °F 29.92 in WSW 6.6 mph 10 mph 93% 0.02 in 0 W/m2
21:59 52.3 °F 50.4 °F 29.93 in WSW 6 mph 10 mph 93% 0.02 in 0 W/m2
22:04 52.3 °F 50.4 °F 29.93 in WSW 7.2 mph 12 mph 93% 0.01 in 0 W/m2
22:09 52.3 °F 50.4 °F 29.93 in SW 4.6 mph 9 mph 93% 0.01 in 0 W/m2
22:14 52.3 °F 50.4 °F 29.93 in WSW 4.1 mph 8 mph 93% 0.00 in 0 W/m2
22:19 52.3 °F 50.4 °F 29.93 in SW 6.8 mph 11 mph 93% 0.00 in 0 W/m2
22:24 52.3 °F 50.4 °F 29.93 in WSW 6.2 mph 14 mph 93% 0.00 in 0 W/m2
22:29 52.3 °F 50.4 °F 29.93 in WSW 5.8 mph 10 mph 93% 0.01 in 0 W/m2
22:34 52.3 °F 50.4 °F 29.93 in SW 6.2 mph 12 mph 93% 0.02 in 0 W/m2
22:39 52.3 °F 50.4 °F 29.93 in WSW 5.7 mph 10 mph 93% 0.02 in 0 W/m2
22:44 52.2 °F 50.2 °F 29.93 in WSW 4.8 mph 9 mph 93% 0.02 in 0 W/m2
22:49 52.2 °F 50.2 °F 29.92 in SW 3.5 mph 8 mph 93% 0.03 in 0 W/m2
22:54 52.2 °F 50.2 °F 29.92 in SW 2.8 mph 7 mph 93% 0.04 in 0 W/m2
22:59 52.2 °F 50.2 °F 29.92 in SW 5.6 mph 9 mph 93% 0.04 in 0 W/m2
23:04 52.2 °F 50.2 °F 29.92 in SSW 4.1 mph 9 mph 93% 0.05 in 0 W/m2
23:09 52.2 °F 50.2 °F 29.92 in SW 6.4 mph 9 mph 93% 0.05 in 0 W/m2
23:14 52.2 °F 50.2 °F 29.92 in SW 5 mph 9 mph 93% 0.06 in 0 W/m2
23:19 52.2 °F 50.2 °F 29.92 in SW 3.3 mph 7 mph 93% 0.06 in 0 W/m2
23:24 52.1 °F 50.1 °F 29.92 in SW 3.7 mph 5 mph 93% 0.08 in 0 W/m2
23:29 52 °F 50 °F 29.92 in SW 2.1 mph 6 mph 93% 0.09 in 0 W/m2
23:34 52 °F 50 °F 29.91 in SW 4 mph 8 mph 93% 0.08 in 0 W/m2
23:39 52 °F 50 °F 29.91 in SSW 3.2 mph 6 mph 93% 0.07 in 0 W/m2
23:44 52 °F 50 °F 29.91 in SW 5 mph 7 mph 93% 0.06 in 0 W/m2
23:49 52 °F 50.1 °F 29.91 in SW 3.4 mph 7 mph 93.2% 0.06 in 0 W/m2
23:54 52 °F 50.2 °F 29.91 in SW 2.7 mph 7 mph 93.4% 0.06 in 0 W/m2
23:59 52 °F 50.2 °F 29.91 in SW 4 mph 7 mph 93.4% 0.05 in 0 W/m2
Bath Spa Weather
Compliments of Weather Underground - 2 mb